sensor_id;sensor_type;location;lat;lon;timestamp;pressure;altitude;pressure_sealevel;temperature;humidity
35507;BME280;36461;52.018;21.036;2023-02-16T00:00:17;101236.35;;;-1.15;90.16
35507;BME280;36461;52.018;21.036;2023-02-16T00:03:11;101233.42;;;-1.16;90.06
35507;BME280;36461;52.018;21.036;2023-02-16T00:05:40;101225.23;;;-1.18;90.30
35507;BME280;36461;52.018;21.036;2023-02-16T00:08:08;101219.66;;;-1.16;90.55
35507;BME280;36461;52.018;21.036;2023-02-16T00:10:37;101218.47;;;-1.17;90.47
35507;BME280;36461;52.018;21.036;2023-02-16T00:13:26;101216.54;;;-1.19;90.43
35507;BME280;36461;52.018;21.036;2023-02-16T00:16:22;101210.02;;;-1.22;90.47
35507;BME280;36461;52.018;21.036;2023-02-16T00:18:51;101207.83;;;-1.21;90.62
35507;BME280;36461;52.018;21.036;2023-02-16T00:21:20;101211.04;;;-1.21;90.76
35507;BME280;36461;52.018;21.036;2023-02-16T00:23:48;101210.64;;;-1.23;90.65
35507;BME280;36461;52.018;21.036;2023-02-16T00:26:22;101205.98;;;-1.26;90.66
35507;BME280;36461;52.018;21.036;2023-02-16T00:28:53;101201.20;;;-1.27;90.85
35507;BME280;36461;52.018;21.036;2023-02-16T00:31:24;101193.52;;;-1.28;90.77
35507;BME280;36461;52.018;21.036;2023-02-16T00:33:55;101188.65;;;-1.32;90.73
35507;BME280;36461;52.018;21.036;2023-02-16T00:36:23;101184.02;;;-1.33;90.91
35507;BME280;36461;52.018;21.036;2023-02-16T00:38:51;101178.23;;;-1.33;90.93
35507;BME280;36461;52.018;21.036;2023-02-16T00:41:23;101176.52;;;-1.35;91.00
35507;BME280;36461;52.018;21.036;2023-02-16T00:44:17;101171.05;;;-1.36;90.79
35507;BME280;36461;52.018;21.036;2023-02-16T00:46:47;101166.92;;;-1.37;91.05
35507;BME280;36461;52.018;21.036;2023-02-16T00:49:16;101160.49;;;-1.37;91.06
35507;BME280;36461;52.018;21.036;2023-02-16T00:51:45;101155.20;;;-1.38;91.31
35507;BME280;36461;52.018;21.036;2023-02-16T00:54:13;101152.27;;;-1.39;91.06
35507;BME280;36461;52.018;21.036;2023-02-16T00:56:42;101152.59;;;-1.40;91.03
35507;BME280;36461;52.018;21.036;2023-02-16T00:59:17;101146.95;;;-1.41;91.19
35507;BME280;36461;52.018;21.036;2023-02-16T01:01:46;101140.47;;;-1.42;91.01
35507;BME280;36461;52.018;21.036;2023-02-16T01:04:21;101135.13;;;-1.45;90.93
35507;BME280;36461;52.018;21.036;2023-02-16T01:06:50;101124.73;;;-1.47;90.91
35507;BME280;36461;52.018;21.036;2023-02-16T01:09:37;101120.88;;;-1.45;91.23
35507;BME280;36461;52.018;21.036;2023-02-16T01:12:23;101121.84;;;-1.47;91.15
35507;BME280;36461;52.018;21.036;2023-02-16T01:14:53;101121.44;;;-1.48;91.28
35507;BME280;36461;52.018;21.036;2023-02-16T01:17:24;101118.14;;;-1.52;91.43
35507;BME280;36461;52.018;21.036;2023-02-16T01:19:55;101115.51;;;-1.54;91.26
35507;BME280;36461;52.018;21.036;2023-02-16T01:22:23;101114.77;;;-1.57;91.50
35507;BME280;36461;52.018;21.036;2023-02-16T01:24:51;101112.14;;;-1.60;91.66
35507;BME280;36461;52.018;21.036;2023-02-16T01:27:19;101108.65;;;-1.62;91.62
35507;BME280;36461;52.018;21.036;2023-02-16T01:29:47;101108.02;;;-1.66;91.79
35507;BME280;36461;52.018;21.036;2023-02-16T01:32:15;101105.94;;;-1.68;91.83
35507;BME280;36461;52.018;21.036;2023-02-16T01:34:43;101103.82;;;-1.71;91.77
35507;BME280;36461;52.018;21.036;2023-02-16T01:37:14;101098.84;;;-1.73;92.01
35507;BME280;36461;52.018;21.036;2023-02-16T01:39:43;101100.67;;;-1.74;92.06
35507;BME280;36461;52.018;21.036;2023-02-16T01:44:47;101096.14;;;-1.78;92.02
35507;BME280;36461;52.018;21.036;2023-02-16T01:47:21;101099.68;;;-1.79;91.81
35507;BME280;36461;52.018;21.036;2023-02-16T01:49:52;101098.27;;;-1.81;91.84
35507;BME280;36461;52.018;21.036;2023-02-16T01:52:28;101100.92;;;-1.83;91.95
35507;BME280;36461;52.018;21.036;2023-02-16T01:55:09;101097.30;;;-1.85;91.91
35507;BME280;36461;52.018;21.036;2023-02-16T01:58:51;101097.61;;;-1.86;91.94
35507;BME280;36461;52.018;21.036;2023-02-16T02:03:32;101100.27;;;-1.88;91.92
35507;BME280;36461;52.018;21.036;2023-02-16T02:06:22;101097.14;;;-1.90;91.83
35507;BME280;36461;52.018;21.036;2023-02-16T02:09:01;101094.89;;;-1.92;91.56
35507;BME280;36461;52.018;21.036;2023-02-16T02:11:49;101086.83;;;-1.95;91.73
35507;BME280;36461;52.018;21.036;2023-02-16T02:14:34;101085.76;;;-1.97;91.51
35507;BME280;36461;52.018;21.036;2023-02-16T02:17:08;101086.22;;;-1.98;91.60
35507;BME280;36461;52.018;21.036;2023-02-16T02:19:53;101084.48;;;-2.00;91.61
35507;BME280;36461;52.018;21.036;2023-02-16T02:22:59;101082.38;;;-2.02;91.70
35507;BME280;36461;52.018;21.036;2023-02-16T02:31:31;101081.38;;;-2.07;91.66
35507;BME280;36461;52.018;21.036;2023-02-16T02:34:16;101075.05;;;-2.09;91.63
35507;BME280;36461;52.018;21.036;2023-02-16T02:37:21;101072.16;;;-2.08;91.61
35507;BME280;36461;52.018;21.036;2023-02-16T02:45:29;101060.10;;;-2.09;91.75
35507;BME280;36461;52.018;21.036;2023-02-16T02:47:59;101055.68;;;-2.10;91.78
35507;BME280;36461;52.018;21.036;2023-02-16T02:53:09;101063.64;;;-2.10;91.86
35507;BME280;36461;52.018;21.036;2023-02-16T02:55:43;101064.42;;;-2.12;91.67
35507;BME280;36461;52.018;21.036;2023-02-16T02:58:33;101061.76;;;-2.16;91.73
35507;BME280;36461;52.018;21.036;2023-02-16T03:01:22;101054.69;;;-2.20;91.62
35507;BME280;36461;52.018;21.036;2023-02-16T03:03:53;101055.20;;;-2.20;91.78
35507;BME280;36461;52.018;21.036;2023-02-16T03:06:25;101053.86;;;-2.20;91.61
35507;BME280;36461;52.018;21.036;2023-02-16T03:08:58;101046.40;;;-2.20;92.04
35507;BME280;36461;52.018;21.036;2023-02-16T03:11:27;101046.40;;;-2.20;91.81
35507;BME280;36461;52.018;21.036;2023-02-16T03:14:26;101038.08;;;-2.20;91.91
35507;BME280;36461;52.018;21.036;2023-02-16T03:16:58;101033.82;;;-2.21;91.97
35507;BME280;36461;52.018;21.036;2023-02-16T03:19:48;101026.34;;;-2.21;92.16
35507;BME280;36461;52.018;21.036;2023-02-16T03:22:37;101027.53;;;-2.21;92.05
35507;BME280;36461;52.018;21.036;2023-02-16T03:25:29;101022.36;;;-2.24;92.12
35507;BME280;36461;52.018;21.036;2023-02-16T03:28:18;101018.89;;;-2.27;91.98
35507;BME280;36461;52.018;21.036;2023-02-16T03:31:10;101020.20;;;-2.28;92.05
35507;BME280;36461;52.018;21.036;2023-02-16T03:33:40;101014.92;;;-2.28;92.06
35507;BME280;36461;52.018;21.036;2023-02-16T03:36:08;101014.52;;;-2.31;91.90
35507;BME280;36461;52.018;21.036;2023-02-16T03:38:36;101009.38;;;-2.32;91.98
35507;BME280;36461;52.018;21.036;2023-02-16T03:41:06;101009.86;;;-2.33;92.17
35507;BME280;36461;52.018;21.036;2023-02-16T03:43:33;101010.02;;;-2.34;92.07
35507;BME280;36461;52.018;21.036;2023-02-16T03:46:02;101008.63;;;-2.36;92.14
35507;BME280;36461;52.018;21.036;2023-02-16T03:48:30;101007.23;;;-2.37;91.96
35507;BME280;36461;52.018;21.036;2023-02-16T03:50:58;101006.04;;;-2.37;91.92
35507;BME280;36461;52.018;21.036;2023-02-16T03:53:26;101001.70;;;-2.40;91.95
35507;BME280;36461;52.018;21.036;2023-02-16T03:55:54;100996.28;;;-2.40;91.93
35507;BME280;36461;52.018;21.036;2023-02-16T03:58:23;100993.70;;;-2.41;92.12
35507;BME280;36461;52.018;21.036;2023-02-16T04:00:52;100990.27;;;-2.43;92.07
35507;BME280;36461;52.018;21.036;2023-02-16T04:03:20;100988.22;;;-2.43;91.92
35507;BME280;36461;52.018;21.036;2023-02-16T04:05:48;100986.04;;;-2.42;92.07
35507;BME280;36461;52.018;21.036;2023-02-16T04:08:16;100982.95;;;-2.43;92.24
35507;BME280;36461;52.018;21.036;2023-02-16T04:10:44;100979.02;;;-2.45;92.20
35507;BME280;36461;52.018;21.036;2023-02-16T04:13:12;100972.45;;;-2.49;92.21
35507;BME280;36461;52.018;21.036;2023-02-16T04:15:40;100967.26;;;-2.53;92.11
35507;BME280;36461;52.018;21.036;2023-02-16T04:18:08;100963.45;;;-2.55;92.15
35507;BME280;36461;52.018;21.036;2023-02-16T04:20:36;100966.66;;;-2.56;92.51
35507;BME280;36461;52.018;21.036;2023-02-16T04:23:05;100965.61;;;-2.57;92.34
35507;BME280;36461;52.018;21.036;2023-02-16T04:25:33;100963.38;;;-2.58;92.40
35507;BME280;36461;52.018;21.036;2023-02-16T04:28:01;100959.96;;;-2.58;92.49
35507;BME280;36461;52.018;21.036;2023-02-16T04:30:30;100951.33;;;-2.58;92.42
35507;BME280;36461;52.018;21.036;2023-02-16T04:32:59;100949.47;;;-2.58;92.58
35507;BME280;36461;52.018;21.036;2023-02-16T04:35:27;100947.27;;;-2.58;92.69
35507;BME280;36461;52.018;21.036;2023-02-16T04:37:55;100949.69;;;-2.56;92.62
35507;BME280;36461;52.018;21.036;2023-02-16T04:40:23;100949.56;;;-2.55;92.67
35507;BME280;36461;52.018;21.036;2023-02-16T04:42:51;100952.64;;;-2.54;92.83
35507;BME280;36461;52.018;21.036;2023-02-16T04:45:19;100952.41;;;-2.56;92.46
35507;BME280;36461;52.018;21.036;2023-02-16T04:47:47;100956.98;;;-2.56;92.50
35507;BME280;36461;52.018;21.036;2023-02-16T04:50:15;100958.17;;;-2.56;92.56
35507;BME280;36461;52.018;21.036;2023-02-16T04:52:43;100963.64;;;-2.54;92.46
35507;BME280;36461;52.018;21.036;2023-02-16T04:55:11;100963.96;;;-2.55;92.43
35507;BME280;36461;52.018;21.036;2023-02-16T04:57:39;100960.40;;;-2.55;92.30
35507;BME280;36461;52.018;21.036;2023-02-16T05:00:08;100957.50;;;-2.56;92.47
35507;BME280;36461;52.018;21.036;2023-02-16T05:02:38;100960.08;;;-2.54;92.59
35507;BME280;36461;52.018;21.036;2023-02-16T05:05:07;100954.01;;;-2.54;92.61
35507;BME280;36461;52.018;21.036;2023-02-16T05:07:34;100952.17;;;-2.52;92.78
35507;BME280;36461;52.018;21.036;2023-02-16T05:10:04;100954.76;;;-2.51;92.87
35507;BME280;36461;52.018;21.036;2023-02-16T05:12:33;100948.86;;;-2.50;92.91
35507;BME280;36461;52.018;21.036;2023-02-16T05:15:20;100950.77;;;-2.49;92.95
35507;BME280;36461;52.018;21.036;2023-02-16T05:17:48;100947.57;;;-2.48;93.14
35507;BME280;36461;52.018;21.036;2023-02-16T05:20:16;100947.25;;;-2.46;93.08
35507;BME280;36461;52.018;21.036;2023-02-16T05:22:44;100951.17;;;-2.46;93.03
35507;BME280;36461;52.018;21.036;2023-02-16T05:25:12;100955.09;;;-2.45;93.04
35507;BME280;36461;52.018;21.036;2023-02-16T05:27:40;100953.91;;;-2.45;93.13
35507;BME280;36461;52.018;21.036;2023-02-16T05:30:09;100951.73;;;-2.45;93.15
35507;BME280;36461;52.018;21.036;2023-02-16T05:32:37;100949.01;;;-2.45;93.19
35507;BME280;36461;52.018;21.036;2023-02-16T05:35:05;100944.10;;;-2.44;93.18
35507;BME280;36461;52.018;21.036;2023-02-16T05:37:33;100945.11;;;-2.45;93.08
35507;BME280;36461;52.018;21.036;2023-02-16T05:40:01;100937.59;;;-2.47;93.03
35507;BME280;36461;52.018;21.036;2023-02-16T05:42:29;100938.59;;;-2.47;93.26
35507;BME280;36461;52.018;21.036;2023-02-16T05:44:57;100941.99;;;-2.46;93.18
35507;BME280;36461;52.018;21.036;2023-02-16T05:47:25;100944.55;;;-2.47;93.50
35507;BME280;36461;52.018;21.036;2023-02-16T05:49:53;100948.52;;;-2.44;93.58
35507;BME280;36461;52.018;21.036;2023-02-16T05:52:21;100945.15;;;-2.43;93.46
35507;BME280;36461;52.018;21.036;2023-02-16T05:54:49;100943.98;;;-2.43;93.47
35507;BME280;36461;52.018;21.036;2023-02-16T05:57:17;100937.77;;;-2.41;93.43
35507;BME280;36461;52.018;21.036;2023-02-16T05:59:45;100933.41;;;-2.39;93.31
35507;BME280;36461;52.018;21.036;2023-02-16T06:02:13;100929.02;;;-2.39;93.42
35507;BME280;36461;52.018;21.036;2023-02-16T06:04:41;100933.80;;;-2.38;93.33
35507;BME280;36461;52.018;21.036;2023-02-16T06:07:09;100934.55;;;-2.35;93.50
35507;BME280;36461;52.018;21.036;2023-02-16T06:09:40;100934.16;;;-2.31;93.45
35507;BME280;36461;52.018;21.036;2023-02-16T06:12:08;100931.70;;;-2.28;93.52
35507;BME280;36461;52.018;21.036;2023-02-16T06:14:36;100931.98;;;-2.24;93.58
35507;BME280;36461;52.018;21.036;2023-02-16T06:17:04;100932.11;;;-2.20;93.48
35507;BME280;36461;52.018;21.036;2023-02-16T06:19:32;100926.11;;;-2.15;93.47
35507;BME280;36461;52.018;21.036;2023-02-16T06:21:59;100921.63;;;-2.13;93.64
35507;BME280;36461;52.018;21.036;2023-02-16T06:24:27;100930.77;;;-2.08;93.70
35507;BME280;36461;52.018;21.036;2023-02-16T06:26:56;100939.39;;;-2.02;93.71
35507;BME280;36461;52.018;21.036;2023-02-16T06:29:24;100943.39;;;-1.98;93.65
35507;BME280;36461;52.018;21.036;2023-02-16T06:31:52;100940.92;;;-1.96;93.46
35507;BME280;36461;52.018;21.036;2023-02-16T06:34:20;100936.12;;;-1.92;93.53
35507;BME280;36461;52.018;21.036;2023-02-16T06:36:48;100933.36;;;-1.87;93.58
35507;BME280;36461;52.018;21.036;2023-02-16T06:39:16;100931.41;;;-1.83;93.55
35507;BME280;36461;52.018;21.036;2023-02-16T06:41:43;100929.18;;;-1.78;93.74
35507;BME280;36461;52.018;21.036;2023-02-16T06:44:13;100932.03;;;-1.73;93.70
35507;BME280;36461;52.018;21.036;2023-02-16T06:46:44;100923.48;;;-1.69;93.82
35507;BME280;36461;52.018;21.036;2023-02-16T06:49:15;100921.24;;;-1.64;94.01
35507;BME280;36461;52.018;21.036;2023-02-16T06:51:45;100915.13;;;-1.58;93.78
35507;BME280;36461;52.018;21.036;2023-02-16T06:54:14;100913.24;;;-1.51;93.83
35507;BME280;36461;52.018;21.036;2023-02-16T06:56:43;100916.19;;;-1.49;93.88
35507;BME280;36461;52.018;21.036;2023-02-16T06:59:11;100914.77;;;-1.45;93.84
35507;BME280;36461;52.018;21.036;2023-02-16T07:01:40;100919.96;;;-1.41;93.82
35507;BME280;36461;52.018;21.036;2023-02-16T07:04:10;100916.52;;;-1.36;93.86
35507;BME280;36461;52.018;21.036;2023-02-16T07:06:38;100912.63;;;-1.29;94.03
35507;BME280;36461;52.018;21.036;2023-02-16T07:09:06;100915.80;;;-1.24;93.95
35507;BME280;36461;52.018;21.036;2023-02-16T07:11:35;100914.08;;;-1.18;93.88
35507;BME280;36461;52.018;21.036;2023-02-16T07:14:03;100903.64;;;-1.14;93.78
35507;BME280;36461;52.018;21.036;2023-02-16T07:16:31;100908.23;;;-1.07;93.93
35507;BME280;36461;52.018;21.036;2023-02-16T07:18:59;100905.66;;;-1.00;93.76
35507;BME280;36461;52.018;21.036;2023-02-16T07:21:27;100903.41;;;-0.95;93.74
35507;BME280;36461;52.018;21.036;2023-02-16T07:23:55;100902.72;;;-0.88;93.81
35507;BME280;36461;52.018;21.036;2023-02-16T07:26:23;100902.41;;;-0.79;93.88
35507;BME280;36461;52.018;21.036;2023-02-16T07:28:51;100900.59;;;-0.69;94.13
35507;BME280;36461;52.018;21.036;2023-02-16T07:31:19;100901.84;;;-0.59;94.29
35507;BME280;36461;52.018;21.036;2023-02-16T07:33:47;100900.34;;;-0.49;94.42
35507;BME280;36461;52.018;21.036;2023-02-16T07:36:15;100902.09;;;-0.39;94.39
35507;BME280;36461;52.018;21.036;2023-02-16T07:38:43;100901.96;;;-0.29;94.26
35507;BME280;36461;52.018;21.036;2023-02-16T07:41:11;100899.11;;;-0.18;94.41
35507;BME280;36461;52.018;21.036;2023-02-16T07:43:40;100902.18;;;-0.09;94.40
35507;BME280;36461;52.018;21.036;2023-02-16T07:46:10;100895.67;;;-0.02;94.29
35507;BME280;36461;52.018;21.036;2023-02-16T07:48:38;100895.15;;;0.06;94.11
35507;BME280;36461;52.018;21.036;2023-02-16T07:51:06;100894.09;;;0.13;94.52
35507;BME280;36461;52.018;21.036;2023-02-16T07:53:35;100898.15;;;0.21;94.43
35507;BME280;36461;52.018;21.036;2023-02-16T07:56:03;100895.70;;;0.27;94.34
35507;BME280;36461;52.018;21.036;2023-02-16T07:58:31;100899.21;;;0.32;94.35
35507;BME280;36461;52.018;21.036;2023-02-16T08:01:08;100897.95;;;0.38;94.58
35507;BME280;36461;52.018;21.036;2023-02-16T08:03:37;100896.90;;;0.46;94.32
35507;BME280;36461;52.018;21.036;2023-02-16T08:06:06;100888.81;;;0.51;94.26
35507;BME280;36461;52.018;21.036;2023-02-16T08:08:36;100885.87;;;0.59;94.53
35507;BME280;36461;52.018;21.036;2023-02-16T08:11:14;100880.04;;;0.66;94.40
35507;BME280;36461;52.018;21.036;2023-02-16T08:13:44;100882.86;;;0.72;94.46
35507;BME280;36461;52.018;21.036;2023-02-16T08:16:18;100883.64;;;0.78;94.16
35507;BME280;36461;52.018;21.036;2023-02-16T08:18:47;100877.98;;;0.87;94.06
35507;BME280;36461;52.018;21.036;2023-02-16T08:21:17;100877.40;;;0.94;94.15
35507;BME280;36461;52.018;21.036;2023-02-16T08:23:51;100879.04;;;1.01;93.98
35507;BME280;36461;52.018;21.036;2023-02-16T08:26:22;100877.80;;;1.10;94.20
35507;BME280;36461;52.018;21.036;2023-02-16T08:28:51;100877.59;;;1.19;94.27
35507;BME280;36461;52.018;21.036;2023-02-16T08:31:21;100875.19;;;1.30;94.48
35507;BME280;36461;52.018;21.036;2023-02-16T08:33:52;100870.58;;;1.43;94.17
35507;BME280;36461;52.018;21.036;2023-02-16T08:36:23;100875.32;;;1.53;93.86
35507;BME280;36461;52.018;21.036;2023-02-16T08:38:52;100875.58;;;1.60;93.71
35507;BME280;36461;52.018;21.036;2023-02-16T08:41:22;100873.65;;;1.70;94.07
35507;BME280;36461;52.018;21.036;2023-02-16T08:43:51;100873.29;;;1.83;93.82
35507;BME280;36461;52.018;21.036;2023-02-16T08:46:19;100876.48;;;1.94;93.64
35507;BME280;36461;52.018;21.036;2023-02-16T08:48:48;100871.31;;;2.06;93.43
35507;BME280;36461;52.018;21.036;2023-02-16T08:51:18;100871.92;;;2.15;93.33
35507;BME280;36461;52.018;21.036;2023-02-16T08:53:46;100870.81;;;2.24;93.31
35507;BME280;36461;52.018;21.036;2023-02-16T08:56:14;100873.30;;;2.32;93.21
35507;BME280;36461;52.018;21.036;2023-02-16T08:58:43;100873.54;;;2.42;92.48
35507;BME280;36461;52.018;21.036;2023-02-16T09:01:12;100872.59;;;2.48;92.16
35507;BME280;36461;52.018;21.036;2023-02-16T09:03:43;100875.21;;;2.57;92.25
35507;BME280;36461;52.018;21.036;2023-02-16T09:06:15;100872.56;;;2.65;92.05
35507;BME280;36461;52.018;21.036;2023-02-16T09:08:43;100870.03;;;2.70;91.79
35507;BME280;36461;52.018;21.036;2023-02-16T09:11:14;100875.21;;;2.76;91.75
35507;BME280;36461;52.018;21.036;2023-02-16T09:13:43;100876.30;;;2.85;91.66
35507;BME280;36461;52.018;21.036;2023-02-16T09:16:14;100877.72;;;2.93;91.54
35507;BME280;36461;52.018;21.036;2023-02-16T09:18:43;100874.88;;;3.02;90.98
35507;BME280;36461;52.018;21.036;2023-02-16T09:21:31;100873.73;;;3.11;91.12
35507;BME280;36461;52.018;21.036;2023-02-16T09:24:03;100875.15;;;3.18;90.88
35507;BME280;36461;52.018;21.036;2023-02-16T09:26:34;100867.66;;;3.24;90.58
35507;BME280;36461;52.018;21.036;2023-02-16T09:29:05;100867.02;;;3.30;90.55
35507;BME280;36461;52.018;21.036;2023-02-16T09:31:35;100866.35;;;3.36;90.47
35507;BME280;36461;52.018;21.036;2023-02-16T09:34:16;100865.87;;;3.42;90.36
35507;BME280;36461;52.018;21.036;2023-02-16T09:36:45;100862.14;;;3.48;90.00
35507;BME280;36461;52.018;21.036;2023-02-16T09:39:14;100856.20;;;3.56;89.76
35507;BME280;36461;52.018;21.036;2023-02-16T09:47:26;100854.91;;;3.83;89.79
35507;BME280;36461;52.018;21.036;2023-02-16T09:50:04;100856.48;;;3.91;89.11
35507;BME280;36461;52.018;21.036;2023-02-16T09:52:39;100854.61;;;3.97;89.03
35507;BME280;36461;52.018;21.036;2023-02-16T09:55:16;100855.66;;;4.04;88.70
35507;BME280;36461;52.018;21.036;2023-02-16T10:00:43;100846.60;;;4.22;88.23
35507;BME280;36461;52.018;21.036;2023-02-16T10:03:40;100842.86;;;4.30;87.73
35507;BME280;36461;52.018;21.036;2023-02-16T10:08:56;100840.11;;;4.40;87.08
35507;BME280;36461;52.018;21.036;2023-02-16T10:14:23;100837.55;;;4.60;87.06
35507;BME280;36461;52.018;21.036;2023-02-16T10:19:49;100834.61;;;4.82;87.03
35507;BME280;36461;52.018;21.036;2023-02-16T10:22:26;100833.91;;;4.94;86.30
35507;BME280;36461;52.018;21.036;2023-02-16T10:25:31;100833.04;;;5.04;85.92
35507;BME280;36461;52.018;21.036;2023-02-16T10:28:15;100831.30;;;5.16;85.16
35507;BME280;36461;52.018;21.036;2023-02-16T10:31:27;100834.52;;;5.24;84.89
35507;BME280;36461;52.018;21.036;2023-02-16T10:42:57;100825.34;;;5.48;82.75
35507;BME280;36461;52.018;21.036;2023-02-16T10:45:50;100820.36;;;5.50;82.64
35507;BME280;36461;52.018;21.036;2023-02-16T10:48:20;100812.98;;;5.50;82.17
35507;BME280;36461;52.018;21.036;2023-02-16T10:51:05;100810.23;;;5.51;81.82
35507;BME280;36461;52.018;21.036;2023-02-16T10:53:48;100811.73;;;5.58;82.19
35507;BME280;36461;52.018;21.036;2023-02-16T10:59:35;100799.48;;;5.71;81.82
35507;BME280;36461;52.018;21.036;2023-02-16T11:02:48;100797.39;;;5.77;81.87
35507;BME280;36461;52.018;21.036;2023-02-16T11:04:57;100797.34;;;5.84;81.76
35507;BME280;36461;52.018;21.036;2023-02-16T11:18:00;100773.98;;;6.17;80.60
35507;BME280;36461;52.018;21.036;2023-02-16T11:20:52;100768.57;;;6.25;80.34
35507;BME280;36461;52.018;21.036;2023-02-16T11:23:26;100769.04;;;6.31;80.00
35507;BME280;36461;52.018;21.036;2023-02-16T11:25:56;100772.45;;;6.34;79.73
35507;BME280;36461;52.018;21.036;2023-02-16T11:33:37;100762.35;;;6.48;79.07
35507;BME280;36461;52.018;21.036;2023-02-16T11:39:12;100764.42;;;6.65;78.59
35507;BME280;36461;52.018;21.036;2023-02-16T11:44:28;100767.92;;;6.76;78.14
35507;BME280;36461;52.018;21.036;2023-02-16T11:47:02;100766.67;;;6.81;78.01
35507;BME280;36461;52.018;21.036;2023-02-16T11:49:40;100761.98;;;6.85;77.78
35507;BME280;36461;52.018;21.036;2023-02-16T11:52:28;100759.71;;;6.88;77.60
35507;BME280;36461;52.018;21.036;2023-02-16T11:55:00;100759.00;;;6.91;77.67
35507;BME280;36461;52.018;21.036;2023-02-16T11:57:34;100756.18;;;6.96;77.52
35507;BME280;36461;52.018;21.036;2023-02-16T12:00:16;100759.91;;;7.00;77.14
35507;BME280;36461;52.018;21.036;2023-02-16T12:08:50;100754.53;;;7.06;76.05
35507;BME280;36461;52.018;21.036;2023-02-16T12:14:47;100754.16;;;7.22;75.84
35507;BME280;36461;52.018;21.036;2023-02-16T12:28:49;100746.40;;;7.37;74.91
35507;BME280;36461;52.018;21.036;2023-02-16T12:42:53;100741.35;;;7.78;74.44
35507;BME280;36461;52.018;21.036;2023-02-16T12:45:27;100736.16;;;7.79;74.15
35507;BME280;36461;52.018;21.036;2023-02-16T12:48:28;100731.34;;;7.78;73.98
35507;BME280;36461;52.018;21.036;2023-02-16T12:51:02;100735.48;;;7.78;74.04
35507;BME280;36461;52.018;21.036;2023-02-16T12:53:57;100731.36;;;7.78;74.05
35507;BME280;36461;52.018;21.036;2023-02-16T12:56:32;100733.23;;;7.78;74.01
35507;BME280;36461;52.018;21.036;2023-02-16T12:59:13;100731.58;;;7.74;73.61
35507;BME280;36461;52.018;21.036;2023-02-16T13:01:45;100728.06;;;7.67;73.44
35507;BME280;36461;52.018;21.036;2023-02-16T13:06:56;100725.91;;;7.62;73.26
35507;BME280;36461;52.018;21.036;2023-02-16T13:09:40;100722.95;;;7.64;73.65
35507;BME280;36461;52.018;21.036;2023-02-16T13:12:32;100722.56;;;7.67;73.49
35507;BME280;36461;52.018;21.036;2023-02-16T13:15:04;100726.48;;;7.69;73.34
35507;BME280;36461;52.018;21.036;2023-02-16T13:17:38;100722.31;;;7.71;73.39
35507;BME280;36461;52.018;21.036;2023-02-16T13:20:13;100719.23;;;7.71;73.11
35507;BME280;36461;52.018;21.036;2023-02-16T13:36:48;100715.39;;;7.62;72.83
35507;BME280;36461;52.018;21.036;2023-02-16T13:45:02;100718.98;;;7.52;72.75
35507;BME280;36461;52.018;21.036;2023-02-16T13:47:38;100716.80;;;7.48;72.76
35507;BME280;36461;52.018;21.036;2023-02-16T13:50:31;100716.66;;;7.46;72.72
35507;BME280;36461;52.018;21.036;2023-02-16T13:53:17;100711.02;;;7.43;72.95
35507;BME280;36461;52.018;21.036;2023-02-16T13:55:46;100706.90;;;7.42;72.57
35507;BME280;36461;52.018;21.036;2023-02-16T14:00:49;100703.80;;;7.42;72.57
35507;BME280;36461;52.018;21.036;2023-02-16T14:05:53;100695.59;;;7.39;72.74
35507;BME280;36461;52.018;21.036;2023-02-16T14:08:23;100700.10;;;7.35;72.75
35507;BME280;36461;52.018;21.036;2023-02-16T14:13:29;100698.83;;;7.28;72.79
35507;BME280;36461;52.018;21.036;2023-02-16T14:16:07;100696.96;;;7.25;73.27
35507;BME280;36461;52.018;21.036;2023-02-16T14:18:38;100705.11;;;7.21;73.03
35507;BME280;36461;52.018;21.036;2023-02-16T14:24:10;100696.48;;;7.11;73.31
35507;BME280;36461;52.018;21.036;2023-02-16T14:26:57;100696.85;;;7.07;73.31
35507;BME280;36461;52.018;21.036;2023-02-16T14:29:55;100700.88;;;7.02;73.47
35507;BME280;36461;52.018;21.036;2023-02-16T14:32:32;100699.04;;;6.99;73.65
35507;BME280;36461;52.018;21.036;2023-02-16T14:35:12;100702.33;;;6.97;73.60
35507;BME280;36461;52.018;21.036;2023-02-16T14:37:53;100699.25;;;6.94;73.70
35507;BME280;36461;52.018;21.036;2023-02-16T14:40:51;100703.04;;;6.94;73.68
35507;BME280;36461;52.018;21.036;2023-02-16T14:49:28;100696.89;;;6.92;73.80
35507;BME280;36461;52.018;21.036;2023-02-16T15:01:24;100699.83;;;6.76;74.09
35507;BME280;36461;52.018;21.036;2023-02-16T15:03:54;100698.50;;;6.71;74.23
35507;BME280;36461;52.018;21.036;2023-02-16T15:06:41;100694.42;;;6.65;74.25
35507;BME280;36461;52.018;21.036;2023-02-16T15:09:17;100693.29;;;6.60;74.29
35507;BME280;36461;52.018;21.036;2023-02-16T15:11:53;100695.41;;;6.54;74.35
35507;BME280;36461;52.018;21.036;2023-02-16T15:14:45;100694.11;;;6.47;74.44
35507;BME280;36461;52.018;21.036;2023-02-16T15:17:31;100694.00;;;6.40;74.56
35507;BME280;36461;52.018;21.036;2023-02-16T15:20:31;100694.08;;;6.33;74.59
35507;BME280;36461;52.018;21.036;2023-02-16T15:22:59;100692.27;;;6.23;74.62
35507;BME280;36461;52.018;21.036;2023-02-16T15:25:30;100697.15;;;6.16;74.68
35507;BME280;36461;52.018;21.036;2023-02-16T15:28:23;100698.58;;;6.10;74.72
35507;BME280;36461;52.018;21.036;2023-02-16T15:30:52;100696.07;;;6.03;74.92
35507;BME280;36461;52.018;21.036;2023-02-16T15:35:54;100698.02;;;5.92;74.97
35507;BME280;36461;52.018;21.036;2023-02-16T15:38:35;100698.41;;;5.86;75.29
35507;BME280;36461;52.018;21.036;2023-02-16T15:41:08;100698.45;;;5.79;75.27
35507;BME280;36461;52.018;21.036;2023-02-16T15:43:46;100701.23;;;5.74;75.35
35507;BME280;36461;52.018;21.036;2023-02-16T15:46:34;100701.29;;;5.66;75.54
35507;BME280;36461;52.018;21.036;2023-02-16T15:49:20;100700.51;;;5.57;75.42
35507;BME280;36461;52.018;21.036;2023-02-16T15:51:49;100699.86;;;5.47;75.55